Terminal Aerodrome Forecast
Issued by NWS

Home | Current Version | Previous Version | Text Only | Print | Product List | Glossary On
Versions: 1 2 3 4 5 6 7 8 9 10 11 12 13 14 15 16
000
FTUS45 KTFX 201100
TAFCTB
TAF
KCTB 201124Z 2012/2112 27030G40KT P6SM SKC
     FM202300 27020G30KT P6SM SCT120 BKN250
     FM210700 26008KT P6SM SKC=

USA.gov is the U.S. government's official web portal to all federal, state and local government web resources and services.